Aristes, Pennsylvania
Current Conditions -  °F | °C
As of 11:35 PM on Saturday 25 Oct 2014 (Local Time) from KHZL Reporting Station
Broken Clouds Broken Clouds  
Wind Chill: 57°   Ceiling: 8500
Heat Index: 57°   Visibility: 10mi
Dew Point: 45°   Wind: 14mph
Humidity: 63%   Direction: 280°W
Pressure: 29.65"   Gusts: 23mph
Location:  40.82°N, 76.34°W
Report Text: KHZL 260335Z AUTO 28012G20KT 10SM SCT050 SCT065 BKN085 14/07 A2965 RMK AO2
Loading
Personal Weather Stations






























Interactive Weather Map
Tropical Storm Tracking
New forecast layout! Learn more

10-Day Weather Forecast

Advertisements
Track Severe Weather on mobile